KFPR/FPR METAR and TAF weather

Enter ICAO airport designator
Station Type Date Time Source
KFPR METAR 2018/12/10 02:21 UTC NOAA

KFPR 100221Z AUTO 26009KT 10SM SCT028 BKN033 21/18 A2994 RMK AO2 T02110178


Station Type Date Time Source
KFPR Decoded METAR 2018/12/10 02:21 UTC NOAA

FORT PIERCE ST LUCIE, FL, United States (KFPR) 27-30N 080-23W 13M
Dec 09, 2018 - 09:21 PM EST / 2018.12.10 0221 UTC
Wind: from the W (260 degrees) at 10 MPH (9 KT):0
Visibility: 10 mile(s):0
Sky conditions: mostly cloudy
Temperature: 70.0 F (21.1 C)
Dew Point: 64.0 F (17.8 C)
Relative Humidity: 81%
Pressure (altimeter): 29.94 in. Hg (1013 hPa)
ob: KFPR 100221Z AUTO 26009KT 10SM SCT028 BKN033 21/18 A2994 RMK AO2 T02110178
cycle: 2

Station Type Date Time Source
KFPR TAF 2018/12/09 18:40 UTC NOAA

TAF KFPR 091738Z 0918/1018 21013G24KT P6SM VCSH SCT025 BKN050
TEMPO 0918/0920 3SM TSRA BKN025CB
FM092100 23012G18KT P6SM SCT015 BKN035
FM100200 26007KT P6SM SCT015 BKN035
FM101400 29013KT P6SM BKN035


Example: see airport list